createdAt,value
2022-09-23T00:01:22.811Z,99483.34
2022-09-23T00:03:50.312Z,99486.50
2022-09-23T00:06:21.753Z,99489.47
2022-09-23T00:08:50.167Z,99489.47
2022-09-23T00:11:26.252Z,99489.47
2022-09-23T00:13:58.973Z,99482.97
2022-09-23T00:16:32.658Z,99478.78
2022-09-23T00:19:01.402Z,99478.56
2022-09-23T00:21:29.418Z,99476.69
2022-09-23T00:23:57.107Z,99487.19
2022-09-23T00:26:25.012Z,99481.94
2022-09-23T00:28:52.610Z,99481.56
2022-09-23T00:31:24.678Z,99492.88
2022-09-23T00:33:58.834Z,99484.31
2022-09-23T00:36:27.286Z,99480.97
2022-09-23T00:38:55.415Z,99476.59
2022-09-23T00:41:23.526Z,99480.13
2022-09-23T00:43:57.892Z,99474.50
2022-09-23T00:46:37.758Z,99469.50
2022-09-23T00:49:15.975Z,99472.22
2022-09-23T00:51:54.213Z,99466.41
2022-09-23T00:54:25.121Z,99469.13
2022-09-23T00:56:52.542Z,99474.16
2022-09-23T00:59:21.745Z,99471.66
2022-09-23T01:01:51.527Z,99472.09
2022-09-23T01:04:19.333Z,99470.03
2022-09-23T01:06:46.568Z,99470.03
2022-09-23T01:09:13.697Z,99476.50
2022-09-23T01:12:22.740Z,99469.63
2022-09-23T01:15:19.197Z,99461.03
2022-09-23T01:18:25.794Z,99461.88
2022-09-23T01:21:08.014Z,99465.63
2022-09-23T01:24:26.886Z,99459.78
2022-09-23T01:27:00.083Z,99456.69
2022-09-23T01:30:10.106Z,99452.88
2022-09-23T01:32:55.881Z,99456.00
2022-09-23T01:35:59.432Z,99456.84
2022-09-23T01:39:01.251Z,99452.28
2022-09-23T01:42:25.516Z,99451.41
2022-09-23T01:45:07.327Z,99453.13
2022-09-23T01:47:49.039Z,99453.72
2022-09-23T01:50:42.730Z,99444.72
2022-09-23T01:53:22.583Z,99451.22
2022-09-23T01:55:57.312Z,99439.50
2022-09-23T01:58:45.677Z,99449.34
2022-09-23T02:01:21.761Z,99450.56
2022-09-23T02:04:11.570Z,99444.53
2022-09-23T02:06:51.151Z,99450.56
2022-09-23T02:09:26.083Z,99446.41
2022-09-23T02:12:01.399Z,99451.00
2022-09-23T02:14:59.633Z,99450.19
2022-09-23T02:17:49.198Z,99444.72
2022-09-23T02:20:24.137Z,99442.84
2022-09-23T02:23:08.735Z,99444.72
2022-09-23T02:26:19.968Z,99442.00
2022-09-23T02:28:57.497Z,99443.69
2022-09-23T02:31:39.634Z,99439.69
2022-09-23T02:34:16.352Z,99442.22
2022-09-23T02:37:03.206Z,99449.72
2022-09-23T02:39:58.906Z,99449.97
2022-09-23T02:42:41.986Z,99445.78
2022-09-23T02:45:09.342Z,99441.63
2022-09-23T02:47:42.182Z,99437.84
2022-09-23T02:50:09.870Z,99445.56
2022-09-23T02:52:38.121Z,99445.78
2022-09-23T02:55:09.270Z,99449.53
2022-09-23T02:57:36.570Z,99443.50
2022-09-23T03:00:06.342Z,99456.47
2022-09-23T03:03:11.604Z,99451.88
2022-09-23T03:05:54.220Z,99442.72
2022-09-23T03:08:53.951Z,99445.44
2022-09-23T03:11:21.784Z,99441.03
2022-09-23T03:14:07.246Z,99440.19
2022-09-23T03:17:29.538Z,99447.75
2022-09-23T03:20:06.194Z,99447.31
2022-09-23T03:22:44.845Z,99445.47
2022-09-23T03:25:24.001Z,99453.84
2022-09-23T03:27:58.484Z,99442.38
2022-09-23T03:30:26.557Z,99443.63
2022-09-23T03:32:56.640Z,99440.06
2022-09-23T03:35:28.013Z,99443.63
2022-09-23T03:38:10.234Z,99444.88
2022-09-23T03:40:44.097Z,99441.13
2022-09-23T03:43:13.916Z,99441.53
2022-09-23T03:45:42.643Z,99435.06
2022-09-23T03:48:10.065Z,99431.72
2022-09-23T03:50:39.247Z,99428.19
2022-09-23T03:53:06.980Z,99434.84
2022-09-23T03:55:34.935Z,99422.72
2022-09-23T03:58:02.469Z,99431.31
2022-09-23T04:00:29.727Z,99426.69
2022-09-23T04:02:59.985Z,99425.06
2022-09-23T04:05:27.217Z,99436.75
2022-09-23T04:07:54.979Z,99429.41
2022-09-23T04:10:22.227Z,99429.22
2022-09-23T04:12:49.394Z,99426.28
2022-09-23T04:15:16.639Z,99431.94
2022-09-23T04:17:43.842Z,99423.97
2022-09-23T04:20:11.002Z,99418.34
2022-09-23T04:22:38.747Z,99421.91
2022-09-23T04:25:06.695Z,99421.06
2022-09-23T04:27:37.633Z,99420.84
2022-09-23T04:30:06.419Z,99427.34
2022-09-23T04:32:33.738Z,99431.09
2022-09-23T04:35:00.946Z,99432.13
2022-09-23T04:37:28.211Z,99438.84
2022-09-23T04:39:56.579Z,99428.81
2022-09-23T04:42:24.012Z,99435.28
2022-09-23T04:44:51.220Z,99435.09
2022-09-23T04:47:19.385Z,99433.22
2022-09-23T04:49:46.626Z,99438.91
2022-09-23T04:52:13.807Z,99435.34
2022-09-23T04:54:41.750Z,99441.63
2022-09-23T04:57:11.152Z,99444.97
2022-09-23T04:59:38.392Z,99443.28
2022-09-23T05:02:05.628Z,99444.53
2022-09-23T05:04:32.828Z,99449.97
2022-09-23T05:07:03.278Z,99453.75
2022-09-23T05:09:31.184Z,99450.66
2022-09-23T05:11:58.403Z,99455.25
2022-09-23T05:17:06.818Z,99454.81
2022-09-23T05:19:33.990Z,99461.09
2022-09-23T05:22:01.198Z,99458.16
2022-09-23T05:24:28.413Z,99460.47
2022-09-23T05:26:56.271Z,99466.53
2022-09-23T05:29:23.461Z,99459.88
2022-09-23T05:31:50.751Z,99464.88
2022-09-23T05:34:18.781Z,99467.59
2022-09-23T05:36:45.945Z,99473.22
2022-09-23T05:39:13.083Z,99472.78
2022-09-23T05:41:43.505Z,99471.97
2022-09-23T05:44:10.849Z,99480.56
2022-09-23T05:46:38.162Z,99470.72
2022-09-23T05:49:06.258Z,99473.84
2022-09-23T05:51:35.808Z,99482.59
2022-09-23T05:54:04.365Z,99475.50
2022-09-23T05:56:33.564Z,99474.44
2022-09-23T05:59:02.516Z,99473.63
2022-09-23T06:01:34.216Z,99473.63
2022-09-23T06:04:05.070Z,99469.84
2022-09-23T06:06:40.154Z,99469.25
2022-09-23T06:09:11.713Z,99475.09
2022-09-23T06:11:38.914Z,99475.91
2022-09-23T06:14:06.760Z,99470.06
2022-09-23T06:16:36.174Z,99470.69
2022-09-23T06:19:07.680Z,99471.31
2022-09-23T06:21:38.075Z,99468.16
2022-09-23T06:24:07.081Z,99469.22
2022-09-23T06:26:36.421Z,99469.59
2022-09-23T06:29:09.859Z,99475.47
2022-09-23T06:31:37.254Z,99466.88
2022-09-23T06:34:11.939Z,99466.25
2022-09-23T06:36:45.438Z,99471.06
2022-09-23T06:39:15.126Z,99475.25
2022-09-23T06:41:42.788Z,99471.88
2022-09-23T06:44:10.043Z,99471.44
2022-09-23T06:46:37.337Z,99475.41
2022-09-23T06:49:04.694Z,99474.97
2022-09-23T06:51:32.146Z,99483.53
2022-09-23T06:53:59.428Z,99484.56
2022-09-23T06:56:26.621Z,99489.75
2022-09-23T06:58:54.723Z,99486.78
2022-09-23T07:01:22.924Z,99490.53
2022-09-23T07:03:50.440Z,99486.09
2022-09-23T07:06:18.163Z,99490.44
2022-09-23T07:08:51.321Z,99481.63
2022-09-23T07:11:22.488Z,99489.16
2022-09-23T07:13:49.769Z,99489.09
2022-09-23T07:16:17.105Z,99475.03
2022-09-23T07:18:45.154Z,99479.59
2022-09-23T07:21:16.096Z,99487.34
2022-09-23T07:23:50.082Z,99482.47
2022-09-23T07:26:19.163Z,99475.09
2022-09-23T07:28:46.528Z,99474.63
2022-09-23T07:31:27.288Z,99485.72
2022-09-23T07:34:02.724Z,99480.66
2022-09-23T07:36:37.514Z,99488.56
2022-09-23T07:39:05.310Z,99481.88
2022-09-23T07:41:34.558Z,99476.19
2022-09-23T07:44:03.223Z,99483.47
2022-09-23T07:46:34.037Z,99483.88
2022-09-23T07:49:03.241Z,99485.91
2022-09-23T07:51:37.003Z,99480.19
2022-09-23T07:54:08.410Z,99473.41
2022-09-23T07:56:36.918Z,99480.44
2022-09-23T07:59:08.641Z,99475.31
2022-09-23T08:01:44.258Z,99479.19
2022-09-23T08:04:30.589Z,99473.38
2022-09-23T08:07:02.311Z,99469.66
2022-09-23T08:09:34.057Z,99471.59
2022-09-23T08:12:02.006Z,99466.69
2022-09-23T08:14:29.223Z,99465.31
2022-09-23T08:16:56.918Z,99464.91
2022-09-23T08:19:24.210Z,99467.91
2022-09-23T08:21:52.289Z,99460.22
2022-09-23T08:24:24.402Z,99450.66
2022-09-23T08:26:55.923Z,99445.66
2022-09-23T08:29:25.255Z,99446.16
2022-09-23T08:31:54.010Z,99442.00
2022-09-23T08:34:23.769Z,99441.66
2022-09-23T08:36:52.452Z,99444.03
2022-09-23T08:39:21.183Z,99441.56
2022-09-23T08:41:58.554Z,99432.19
2022-09-23T08:44:38.756Z,99431.09
2022-09-23T08:47:29.756Z,99427.28
2022-09-23T08:50:25.010Z,99429.78
2022-09-23T08:53:27.740Z,99419.78
2022-09-23T08:55:59.343Z,99428.56
2022-09-23T08:58:50.802Z,99416.13
2022-09-23T09:01:29.574Z,99422.31
2022-09-23T09:04:32.552Z,99415.13
2022-09-23T09:07:36.298Z,99422.22
2022-09-23T09:10:09.533Z,99417.50
2022-09-23T09:12:45.348Z,99409.63
2022-09-23T09:15:24.662Z,99405.19
2022-09-23T09:18:21.960Z,99406.91
2022-09-23T09:21:08.587Z,99406.03
2022-09-23T09:23:44.385Z,99398.56
2022-09-23T09:26:33.808Z,99390.41
2022-09-23T09:29:34.293Z,99394.41
2022-09-23T09:32:24.979Z,99388.03
2022-09-23T09:34:58.698Z,99386.75
2022-09-23T09:37:46.831Z,99392.56
2022-09-23T09:40:17.146Z,99379.75
2022-09-23T09:42:49.552Z,99376.59
2022-09-23T09:45:28.945Z,99376.06
2022-09-23T09:48:50.322Z,99372.56
2022-09-23T09:51:22.933Z,99368.03
2022-09-23T09:53:55.057Z,99364.81
2022-09-23T09:56:34.788Z,99367.88
2022-09-23T09:59:11.499Z,99361.09
2022-09-23T10:01:39.264Z,99358.09
2022-09-23T10:04:29.897Z,99355.41
2022-09-23T10:07:15.948Z,99357.38
2022-09-23T10:09:51.174Z,99361.03
2022-09-23T10:12:21.881Z,99350.28
2022-09-23T10:15:00.972Z,99353.31
2022-09-23T10:17:35.424Z,99349.78
2022-09-23T10:20:14.831Z,99352.56
2022-09-23T10:22:43.309Z,99351.25
2022-09-23T10:25:20.768Z,99350.16
2022-09-23T10:27:47.993Z,99355.13
2022-09-23T10:30:29.055Z,99351.88
2022-09-23T10:32:57.261Z,99331.03
2022-09-23T10:35:26.625Z,99343.16
2022-09-23T10:37:55.478Z,99335.50
2022-09-23T10:40:56.265Z,99333.31
2022-09-23T10:44:17.183Z,99319.34
2022-09-23T10:47:20.807Z,99317.47
2022-09-23T10:50:13.373Z,99311.97
2022-09-23T10:53:11.767Z,99304.81
2022-09-23T10:55:43.912Z,99296.28
2022-09-23T10:58:41.732Z,99296.66
2022-09-23T11:01:50.204Z,99290.09
2022-09-23T11:04:37.520Z,99287.94
2022-09-23T11:07:37.282Z,99282.69
2022-09-23T11:10:46.659Z,99275.53
2022-09-23T11:13:20.164Z,99274.44
2022-09-23T11:16:11.355Z,99276.13
2022-09-23T11:19:23.630Z,99269.78
2022-09-23T11:22:02.047Z,99272.78
2022-09-23T11:25:02.228Z,99266.25
2022-09-23T11:28:18.203Z,99262.72
2022-09-23T11:30:57.030Z,99266.59
2022-09-23T11:34:09.979Z,99258.91
2022-09-23T11:36:53.602Z,99262.22
2022-09-23T11:39:31.325Z,99267.44
2022-09-23T11:42:02.431Z,99256.44
2022-09-23T11:44:55.319Z,99258.94
2022-09-23T11:47:30.672Z,99260.31
2022-09-23T11:50:12.533Z,99262.56
2022-09-23T11:53:12.664Z,99258.72
2022-09-23T11:56:03.720Z,99251.88
2022-09-23T11:58:53.989Z,99251.03
2022-09-23T12:01:46.674Z,99258.47
2022-09-23T12:04:51.245Z,99252.69
2022-09-23T12:07:39.668Z,99253.84
2022-09-23T12:10:09.463Z,99251.13
2022-09-23T12:13:10.910Z,99251.66
2022-09-23T12:16:49.101Z,99256.38
2022-09-23T12:20:05.807Z,99243.47
2022-09-23T12:22:57.940Z,99247.34
2022-09-23T12:25:48.089Z,99257.53
2022-09-23T12:28:24.604Z,99238.03
2022-09-23T12:30:56.947Z,99231.19
2022-09-23T12:33:28.494Z,99246.91
2022-09-23T12:36:05.062Z,99231.53
2022-09-23T12:39:03.482Z,99230.69
2022-09-23T12:41:51.816Z,99221.91
2022-09-23T12:44:42.314Z,99221.94
2022-09-23T12:47:15.319Z,99226.63
2022-09-23T12:49:44.378Z,99219.75
2022-09-23T12:52:11.452Z,99215.09
2022-09-23T12:54:46.371Z,99222.53
2022-09-23T12:57:34.246Z,99219.50
2022-09-23T13:00:11.316Z,99221.75
2022-09-23T13:02:47.636Z,99226.41
2022-09-23T13:05:39.839Z,99211.06
2022-09-23T13:08:18.742Z,99211.34
2022-09-23T13:10:55.401Z,99216.06
2022-09-23T13:13:36.354Z,99210.00
2022-09-23T13:16:22.841Z,99205.84
2022-09-23T13:18:55.491Z,99200.63
2022-09-23T13:21:47.332Z,99207.25
2022-09-23T13:24:14.549Z,99201.72
2022-09-23T13:27:19.197Z,99197.56
2022-09-23T13:30:25.035Z,99195.13
2022-09-23T13:38:37.839Z,99181.56
2022-09-23T13:41:22.469Z,99178.50
2022-09-23T13:43:53.935Z,99177.13
2022-09-23T13:46:24.601Z,99165.00
2022-09-23T13:48:54.887Z,99165.56
2022-09-23T13:51:35.157Z,99168.31
2022-09-23T13:54:05.257Z,99158.38
2022-09-23T13:56:35.344Z,99152.03
2022-09-23T13:59:25.744Z,99160.28
2022-09-23T14:02:45.528Z,99166.06
2022-09-23T14:05:21.796Z,99157.00
2022-09-23T14:07:51.012Z,99156.16
2022-09-23T14:10:24.127Z,99153.41
2022-09-23T14:12:53.523Z,99149.81
2022-09-23T14:15:21.889Z,99157.00
2022-09-23T14:18:01.535Z,99148.75
2022-09-23T14:20:28.854Z,99152.56
2022-09-23T14:23:14.732Z,99155.31
2022-09-23T14:25:47.304Z,99154.25
2022-09-23T14:28:21.553Z,99146.81
2022-09-23T14:30:51.998Z,99146.25
2022-09-23T14:33:32.513Z,99136.06
2022-09-23T14:36:32.125Z,99143.22
2022-09-23T14:39:10.579Z,99148.75
2022-09-23T14:41:41.583Z,99134.97
2022-09-23T14:44:22.253Z,99135.53
2022-09-23T14:46:59.127Z,99129.72
2022-09-23T14:49:27.184Z,99128.63
2022-09-23T14:51:58.654Z,99126.97
2022-09-23T14:54:47.523Z,99123.66
2022-09-23T14:57:23.931Z,99123.09
2022-09-23T15:00:13.327Z,99117.88
2022-09-23T15:02:45.364Z,99117.88
2022-09-23T15:05:20.715Z,99115.97
2022-09-23T15:07:51.685Z,99122.56
2022-09-23T15:10:33.885Z,99117.88
2022-09-23T15:13:20.004Z,99119.22
2022-09-23T15:15:47.697Z,99117.31
2022-09-23T15:18:22.623Z,99112.34
2022-09-23T15:21:23.254Z,99107.69
2022-09-23T15:23:54.802Z,99107.94
2022-09-23T15:26:48.702Z,99102.19
2022-09-23T15:29:16.100Z,99101.59
2022-09-23T15:31:43.468Z,99105.19
2022-09-23T15:34:11.583Z,99104.66
2022-09-23T15:36:38.793Z,99098.31
2022-09-23T15:39:08.798Z,99097.75
2022-09-23T15:41:35.944Z,99101.06
2022-09-23T15:44:16.348Z,99090.06
2022-09-23T15:46:50.016Z,99091.41
2022-09-23T15:49:36.872Z,99099.41
2022-09-23T15:52:09.739Z,99084.28
2022-09-23T15:54:37.977Z,99090.88
2022-09-23T15:57:05.383Z,99094.97
2022-09-23T15:59:33.008Z,99100.75
2022-09-23T16:02:06.775Z,99100.72
2022-09-23T16:04:35.002Z,99095.50
2022-09-23T16:07:04.534Z,99089.94
2022-09-23T16:09:31.747Z,99095.41
2022-09-23T16:12:03.372Z,99092.09
2022-09-23T16:14:30.565Z,99097.00
2022-09-23T16:16:57.827Z,99091.19
2022-09-23T16:19:25.744Z,99095.81
2022-09-23T16:21:52.939Z,99112.56
2022-09-23T16:24:22.603Z,99104.78
2022-09-23T16:26:53.196Z,99107.72
2022-09-23T16:29:20.394Z,99106.06
2022-09-23T16:31:47.586Z,99102.97
2022-09-23T16:34:14.754Z,99099.59
2022-09-23T16:36:44.250Z,99093.81
2022-09-23T16:39:13.642Z,99100.63
2022-09-23T16:41:42.869Z,99103.31
2022-09-23T16:44:12.468Z,99099.72
2022-09-23T16:46:42.882Z,99095.50
2022-09-23T16:49:12.169Z,99091.34
2022-09-23T16:51:40.333Z,99092.41
2022-09-23T16:54:11.460Z,99092.34
2022-09-23T16:56:44.317Z,99103.25
2022-09-23T16:59:13.561Z,99110.59
2022-09-23T17:02:00.051Z,99097.66
2022-09-23T17:04:30.467Z,99098.47
2022-09-23T17:06:57.777Z,99101.16
2022-09-23T17:09:28.943Z,99101.09
2022-09-23T17:12:00.296Z,99107.59
2022-09-23T17:14:31.581Z,99107.56
2022-09-23T17:16:59.305Z,99111.28
2022-09-23T17:19:26.550Z,99109.00
2022-09-23T17:21:54.403Z,99113.56
2022-09-23T17:24:21.758Z,99123.41
2022-09-23T17:26:52.832Z,99114.53
2022-09-23T17:29:20.719Z,99113.97
2022-09-23T17:31:47.937Z,99123.78
2022-09-23T17:34:16.370Z,99117.16
2022-09-23T17:36:43.607Z,99120.69
2022-09-23T17:39:11.130Z,99120.00
2022-09-23T17:41:39.319Z,99119.63
2022-09-23T17:44:08.088Z,99130.50
2022-09-23T17:46:35.207Z,99125.78
2022-09-23T17:49:04.052Z,99135.31
2022-09-23T17:51:31.317Z,99127.38
2022-09-23T17:53:58.507Z,99135.53
2022-09-23T17:56:27.159Z,99139.56
2022-09-23T17:58:54.843Z,99149.38
2022-09-23T18:01:25.937Z,99142.50
2022-09-23T18:03:59.719Z,99144.06
2022-09-23T18:06:33.676Z,99156.38
2022-09-23T18:09:04.290Z,99152.44
2022-09-23T18:11:35.871Z,99153.53
2022-09-23T18:14:20.485Z,99160.59
2022-09-23T18:16:53.665Z,99147.38
2022-09-23T18:19:23.313Z,99158.34
2022-09-23T18:21:56.418Z,99157.44
2022-09-23T18:24:33.387Z,99161.75
2022-09-23T18:27:01.797Z,99165.81
2022-09-23T18:29:29.116Z,99164.91
2022-09-23T18:31:56.680Z,99162.41
2022-09-23T18:34:24.346Z,99162.31
2022-09-23T18:36:51.863Z,99159.00
2022-09-23T18:39:19.075Z,99165.78
2022-09-23T18:41:46.282Z,99161.63
2022-09-23T18:44:13.420Z,99165.31
2022-09-23T18:46:40.625Z,99158.69
2022-09-23T18:49:26.713Z,99156.44
2022-09-23T18:51:57.195Z,99152.31
2022-09-23T18:54:27.733Z,99151.16
2022-09-23T18:56:55.965Z,99146.97
2022-09-23T18:59:27.905Z,99156.50
2022-09-23T19:01:55.847Z,99151.53
2022-09-23T19:04:26.308Z,99147.38
2022-09-23T19:06:56.508Z,99152.84
2022-09-23T19:09:23.963Z,99157.25
2022-09-23T19:11:52.601Z,99157.25
2022-09-23T19:14:20.558Z,99156.91
2022-09-23T19:16:50.877Z,99157.41
2022-09-23T19:19:18.249Z,99161.44
2022-09-23T19:21:45.546Z,99159.44
2022-09-23T19:24:16.177Z,99159.69
2022-09-23T19:26:44.548Z,99155.53
2022-09-23T19:29:17.076Z,99151.41
2022-09-23T19:31:44.546Z,99149.63
2022-09-23T19:34:18.880Z,99153.41
2022-09-23T19:36:47.169Z,99149.88
2022-09-23T19:39:18.295Z,99142.97
2022-09-23T19:41:46.897Z,99139.69
2022-09-23T19:44:15.231Z,99132.53
2022-09-23T19:46:45.443Z,99132.78
2022-09-23T19:49:13.353Z,99131.88
2022-09-23T19:51:40.997Z,99131.50
2022-09-23T19:54:09.172Z,99146.47
2022-09-23T19:56:37.650Z,99151.94
2022-09-23T19:59:08.720Z,99154.09
2022-09-23T20:01:36.262Z,99152.66
2022-09-23T20:04:03.699Z,99147.09
2022-09-23T20:06:34.039Z,99147.00
2022-09-23T20:09:01.834Z,99154.25
2022-09-23T20:11:29.878Z,99153.19
2022-09-23T20:14:04.901Z,99148.44
2022-09-23T20:16:37.263Z,99149.50
2022-09-23T20:19:05.764Z,99145.38
2022-09-23T20:21:33.910Z,99158.44
2022-09-23T20:24:02.004Z,99154.28
2022-09-23T20:26:47.614Z,99149.06
2022-09-23T20:29:14.989Z,99156.41
2022-09-23T20:31:42.289Z,99149.41
2022-09-23T20:34:10.342Z,99149.66
2022-09-23T20:36:38.099Z,99145.50
2022-09-23T20:39:06.578Z,99138.88
2022-09-23T20:41:37.844Z,99143.97
2022-09-23T20:44:09.752Z,99145.88
2022-09-23T20:46:37.036Z,99146.38
2022-09-23T20:49:08.752Z,99144.09
2022-09-23T20:51:37.258Z,99143.28
2022-09-23T20:54:04.879Z,99139.09
2022-09-23T20:56:32.384Z,99143.38
2022-09-23T20:59:05.353Z,99148.28
2022-09-23T21:01:36.989Z,99147.44
2022-09-23T21:04:05.971Z,99138.63
2022-09-23T21:06:37.481Z,99144.09
2022-09-23T21:09:06.112Z,99145.41
2022-09-23T21:11:33.991Z,99143.97
2022-09-23T21:14:02.165Z,99149.91
2022-09-23T21:16:30.024Z,99147.03
2022-09-23T21:18:57.688Z,99140.38
2022-09-23T21:21:25.010Z,99146.09
2022-09-23T21:23:52.625Z,99144.06
2022-09-23T21:26:25.490Z,99148.09
2022-09-23T21:29:15.565Z,99145.97
2022-09-23T21:37:17.687Z,99141.09
2022-09-23T21:40:04.925Z,99143.22
2022-09-23T21:42:32.208Z,99144.78
2022-09-23T21:44:59.374Z,99144.16
2022-09-23T21:47:26.579Z,99145.47
2022-09-23T21:49:53.739Z,99149.72
2022-09-23T21:52:20.928Z,99147.84
2022-09-23T21:54:48.111Z,99154.34
2022-09-23T21:57:15.283Z,99142.25
2022-09-23T21:59:42.419Z,99149.59
2022-09-23T22:02:10.114Z,99155.06
2022-09-23T22:04:37.311Z,99149.25
2022-09-23T22:07:04.562Z,99145.91
2022-09-23T22:09:31.688Z,99146.16
2022-09-23T22:12:09.850Z,99147.91
2022-09-23T22:14:38.964Z,99142.94
2022-09-23T22:17:10.517Z,99139.81
2022-09-23T22:19:44.311Z,99146.56
2022-09-23T22:22:16.406Z,99142.66
2022-09-23T22:24:45.958Z,99146.69
2022-09-23T22:27:18.065Z,99148.22
2022-09-23T22:30:03.690Z,99148.44
2022-09-23T22:32:54.253Z,99149.75
2022-09-23T22:35:22.276Z,99149.97
2022-09-23T22:37:49.588Z,99148.53
2022-09-23T22:40:17.038Z,99147.94
2022-09-23T22:42:44.721Z,99142.13
2022-09-23T22:45:13.022Z,99154.69
2022-09-23T22:47:45.379Z,99154.31
2022-09-23T22:50:14.407Z,99164.00
2022-09-23T22:52:41.944Z,99150.25
2022-09-23T22:55:09.736Z,99149.16
2022-09-23T22:57:37.205Z,99147.97
2022-09-23T23:00:09.451Z,99159.69
2022-09-23T23:02:36.856Z,99157.66
2022-09-23T23:05:04.289Z,99150.78
2022-09-23T23:07:32.193Z,99150.56
2022-09-23T23:09:59.385Z,99145.97
2022-09-23T23:12:26.608Z,99141.56
2022-09-23T23:14:53.833Z,99145.97
2022-09-23T23:17:21.882Z,99139.06
2022-09-23T23:19:50.631Z,99137.16
2022-09-23T23:22:17.840Z,99142.75
2022-09-23T23:24:45.106Z,99137.91
2022-09-23T23:27:12.238Z,99132.09
2022-09-23T23:29:39.485Z,99132.09
2022-09-23T23:32:07.746Z,99125.78
2022-09-23T23:34:34.931Z,99126.06
2022-09-23T23:37:02.183Z,99128.63
2022-09-23T23:39:29.387Z,99126.75
2022-09-23T23:41:58.524Z,99125.91
2022-09-23T23:44:27.144Z,99124.44
2022-09-23T23:46:55.282Z,99129.78
2022-09-23T23:49:22.659Z,99127.91
2022-09-23T23:51:50.694Z,99125.38
2022-09-23T23:54:17.994Z,99133.19
2022-09-23T23:56:45.211Z,99119.19
2022-09-23T23:59:13.413Z,99114.81
